createdAt,value
2023-03-20T00:01:26.491Z,9.45
2023-03-20T00:08:29.734Z,7.95
2023-03-20T00:15:34.294Z,8.68
2023-03-20T00:22:36.053Z,8.30
2023-03-20T00:29:37.614Z,8.55
2023-03-20T00:36:39.279Z,7.47
2023-03-20T00:43:40.841Z,8.55
2023-03-20T00:50:42.536Z,10.27
2023-03-20T00:57:55.786Z,8.65
2023-03-20T01:04:58.435Z,8.93
2023-03-20T01:12:00.582Z,10.80
2023-03-20T01:19:02.153Z,10.07
2023-03-20T01:26:04.123Z,8.88
2023-03-20T01:33:26.489Z,11.30
2023-03-20T01:40:55.822Z,11.02
2023-03-20T01:47:58.929Z,9.10
2023-03-20T01:55:00.883Z,9.30
2023-03-20T02:02:02.625Z,9.68
2023-03-20T02:09:04.432Z,9.85
2023-03-20T02:16:14.028Z,11.07
2023-03-20T02:24:16.439Z,11.15
2023-03-20T02:31:48.346Z,8.98
2023-03-20T02:39:02.611Z,11.73
2023-03-20T02:46:20.541Z,12.50
2023-03-20T02:53:34.763Z,12.10
2023-03-20T03:00:39.309Z,9.48
2023-03-20T03:07:44.148Z,9.95
2023-03-20T03:14:49.146Z,10.90
2023-03-20T03:21:52.384Z,12.13
2023-03-20T03:28:58.263Z,10.27
2023-03-20T03:36:26.154Z,14.00
2023-03-20T03:43:35.617Z,9.85
2023-03-20T03:50:47.758Z,10.80
2023-03-20T03:57:52.638Z,13.65
2023-03-20T04:04:55.148Z,15.60
2023-03-20T04:11:56.734Z,14.45
2023-03-20T04:18:58.426Z,12.57
2023-03-20T04:26:00.165Z,14.70
2023-03-20T04:33:03.358Z,15.02
2023-03-20T04:40:19.854Z,13.98
2023-03-20T04:47:22.822Z,12.80
2023-03-20T04:54:26.616Z,14.07
2023-03-20T05:01:28.518Z,14.52
2023-03-20T05:08:30.254Z,15.38
2023-03-20T05:15:35.470Z,16.67
2023-03-20T05:22:55.881Z,14.52
2023-03-20T05:30:16.533Z,15.50
2023-03-20T05:37:30.210Z,16.27
2023-03-20T05:44:41.697Z,14.88
2023-03-20T05:52:06.531Z,15.65
2023-03-20T05:59:20.301Z,15.60
2023-03-20T06:06:42.254Z,16.58
2023-03-20T06:13:44.360Z,18.20
2023-03-20T06:20:47.016Z,19.42
2023-03-20T06:27:49.164Z,18.23
2023-03-20T06:34:51.012Z,16.73
2023-03-20T06:41:52.777Z,16.27
2023-03-20T06:48:58.114Z,16.08
2023-03-20T06:55:59.780Z,18.85
2023-03-20T07:03:02.445Z,25.13
2023-03-20T07:10:04.579Z,26.52
2023-03-20T07:17:06.285Z,21.23
2023-03-20T07:24:08.932Z,27.70
2023-03-20T07:31:18.810Z,26.27
2023-03-20T07:38:21.628Z,24.35
2023-03-20T07:45:36.391Z,25.80
2023-03-20T07:52:38.192Z,28.67
2023-03-20T07:59:39.902Z,24.88
2023-03-20T08:06:41.518Z,25.98
2023-03-20T08:13:43.217Z,26.15
2023-03-20T08:20:44.764Z,28.08
2023-03-20T08:27:46.618Z,26.33
2023-03-20T08:34:48.210Z,26.30
2023-03-20T08:41:49.726Z,27.80
2023-03-20T08:48:51.549Z,21.85
2023-03-20T08:55:53.314Z,24.25
2023-03-20T09:02:54.885Z,19.27
2023-03-20T09:09:56.553Z,20.63
2023-03-20T09:16:58.124Z,21.73
2023-03-20T09:23:59.672Z,22.23
2023-03-20T09:31:01.359Z,21.33
2023-03-20T09:38:03.077Z,22.75
2023-03-20T09:45:22.140Z,20.40
2023-03-20T09:52:51.866Z,19.30
2023-03-20T09:59:57.565Z,18.47
2023-03-20T10:06:59.063Z,18.00
2023-03-20T10:14:18.516Z,14.27
2023-03-20T10:21:24.841Z,16.57
2023-03-20T10:28:36.643Z,15.85
2023-03-20T10:35:57.441Z,18.20
2023-03-20T10:43:09.510Z,15.18
2023-03-20T10:50:15.418Z,16.75
2023-03-20T10:57:24.546Z,12.65
2023-03-20T11:04:26.203Z,11.60
2023-03-20T11:11:28.777Z,10.35
2023-03-20T11:18:30.412Z,13.30
2023-03-20T11:25:37.476Z,14.95
2023-03-20T11:32:46.466Z,12.18
2023-03-20T11:40:01.434Z,13.10
2023-03-20T11:47:14.201Z,13.98
2023-03-20T11:54:20.136Z,12.18
2023-03-20T12:01:22.144Z,10.38
2023-03-20T12:08:25.074Z,12.05
2023-03-20T12:15:37.003Z,13.65
2023-03-20T12:22:43.272Z,13.02
2023-03-20T12:29:48.836Z,12.75
2023-03-20T12:36:52.907Z,15.00
2023-03-20T12:43:54.519Z,12.85
2023-03-20T12:51:07.875Z,15.15
2023-03-20T12:58:32.581Z,15.45
2023-03-20T13:05:51.054Z,15.10
2023-03-20T13:13:04.214Z,16.40
2023-03-20T13:20:24.013Z,14.20
2023-03-20T13:27:45.758Z,16.38
2023-03-20T13:34:47.323Z,14.93
2023-03-20T13:41:48.879Z,17.45
2023-03-20T13:48:50.706Z,17.30
2023-03-20T13:56:11.562Z,13.57
2023-03-20T14:03:22.260Z,14.70
2023-03-20T14:10:24.060Z,19.65
2023-03-20T14:17:27.260Z,21.15
2023-03-20T14:24:28.796Z,17.55
2023-03-20T14:31:31.533Z,18.83
2023-03-20T14:38:44.564Z,15.90
2023-03-20T14:45:51.561Z,20.27
2023-03-20T14:52:54.540Z,19.30
2023-03-20T14:59:56.239Z,21.13
2023-03-20T15:07:19.208Z,17.30
2023-03-20T15:14:22.970Z,19.20
2023-03-20T15:21:36.548Z,17.20
2023-03-20T15:28:38.200Z,17.52
2023-03-20T15:35:39.837Z,20.25
2023-03-20T15:42:41.370Z,18.85
2023-03-20T15:49:43.037Z,19.65
2023-03-20T15:56:45.727Z,18.17
2023-03-20T16:03:47.476Z,19.88
2023-03-20T16:10:49.019Z,19.25
2023-03-20T16:17:50.553Z,17.05
2023-03-20T16:24:55.532Z,15.32
2023-03-20T16:31:59.390Z,16.45
2023-03-20T16:39:08.133Z,18.23
2023-03-20T16:46:09.653Z,17.65
2023-03-20T16:53:12.322Z,16.52
2023-03-20T17:00:25.820Z,17.15
2023-03-20T17:07:28.378Z,17.95
2023-03-20T17:14:30.080Z,18.33
2023-03-20T17:21:31.885Z,18.17
2023-03-20T17:28:34.991Z,20.00
2023-03-20T17:35:37.162Z,21.65
2023-03-20T17:42:39.643Z,22.10
2023-03-20T17:49:41.181Z,19.95
2023-03-20T17:56:42.875Z,18.83
2023-03-20T18:03:44.433Z,15.57
2023-03-20T18:10:46.013Z,18.08
2023-03-20T18:17:47.523Z,20.38
2023-03-20T18:24:49.096Z,17.92
2023-03-20T18:31:50.774Z,17.45
2023-03-20T18:38:52.412Z,17.15
2023-03-20T18:45:54.075Z,18.40
2023-03-20T18:52:56.410Z,15.48
2023-03-20T18:59:57.930Z,16.23
2023-03-20T19:06:59.456Z,18.25
2023-03-20T19:14:01.243Z,19.77
2023-03-20T19:21:02.862Z,21.00
2023-03-20T19:28:04.886Z,23.75
2023-03-20T19:42:53.075Z,16.95
2023-03-20T19:49:50.150Z,17.80
2023-03-20T19:56:51.699Z,20.90
2023-03-20T20:03:58.204Z,20.15
2023-03-20T20:10:59.802Z,21.75
2023-03-20T20:18:01.556Z,18.13
2023-03-20T20:25:03.338Z,16.80
2023-03-20T20:32:05.401Z,19.67
2023-03-20T20:39:07.170Z,18.13
2023-03-20T20:46:08.818Z,15.95
2023-03-20T20:53:10.570Z,18.20
2023-03-20T21:00:12.681Z,15.00
2023-03-20T21:07:14.255Z,16.63
2023-03-20T21:14:15.785Z,15.00
2023-03-20T21:21:17.319Z,14.02
2023-03-20T21:28:18.914Z,13.07
2023-03-20T21:35:20.420Z,13.68
2023-03-20T21:42:21.938Z,17.45
2023-03-20T21:50:17.509Z,13.88
2023-03-20T22:05:01.418Z,13.70
2023-03-20T22:12:07.705Z,13.13
2023-03-20T22:27:13.014Z,15.05
2023-03-20T22:48:20.418Z,14.38
2023-03-20T22:55:22.677Z,15.35
2023-03-20T23:02:24.172Z,14.95
2023-03-20T23:09:25.722Z,10.88
2023-03-20T23:16:27.347Z,11.70
2023-03-20T23:23:28.939Z,12.88
2023-03-20T23:30:37.832Z,12.75
2023-03-20T23:37:45.464Z,10.57
2023-03-20T23:44:55.565Z,12.35
2023-03-20T23:51:58.855Z,10.82
2023-03-20T23:59:11.177Z,11.95
